createdAt,value
2019-05-12T00:00:39.137Z,1.30
2019-05-12T00:03:08.989Z,1.20
2019-05-12T00:05:39.503Z,1.20
2019-05-12T00:08:09.972Z,1.30
2019-05-12T00:10:40.576Z,1.80
2019-05-12T00:13:11.050Z,1.80
2019-05-12T00:15:41.501Z,1.47
2019-05-12T00:18:12.088Z,1.20
2019-05-12T00:20:42.534Z,1.30
2019-05-12T00:23:23.932Z,1.50
2019-05-12T00:25:45.228Z,1.50
2019-05-12T00:28:17.803Z,1.57
2019-05-12T00:30:50.472Z,1.40
2019-05-12T00:33:20.911Z,1.17
2019-05-12T00:35:51.371Z,1.37
2019-05-12T00:38:21.819Z,1.27
2019-05-12T00:40:52.361Z,1.10
2019-05-12T00:43:22.794Z,1.10
2019-05-12T00:45:53.247Z,1.27
2019-05-12T00:48:23.991Z,1.23
2019-05-12T00:50:54.507Z,1.20
2019-05-12T00:53:39.332Z,1.17
2019-05-12T00:56:10.937Z,1.27
2019-05-12T00:58:41.619Z,1.13
2019-05-12T01:01:12.083Z,1.30
2019-05-12T01:03:42.597Z,1.40
2019-05-12T01:06:13.004Z,1.10
2019-05-12T01:08:43.533Z,1.40
2019-05-12T01:11:13.996Z,1.27
2019-05-12T01:13:44.475Z,1.00
2019-05-12T01:16:14.924Z,1.20
2019-05-12T01:18:47.852Z,1.40
2019-05-12T01:21:18.428Z,1.27
2019-05-12T01:23:56.451Z,1.40
2019-05-12T01:26:21.145Z,1.13
2019-05-12T01:28:51.590Z,1.20
2019-05-12T01:31:23.703Z,1.00
2019-05-12T01:33:54.245Z,1.20
2019-05-12T01:36:24.677Z,0.87
2019-05-12T01:38:55.109Z,0.93
2019-05-12T01:41:25.687Z,1.50
2019-05-12T01:43:58.456Z,1.20
2019-05-12T01:46:28.905Z,1.10
2019-05-12T01:48:59.388Z,1.00
2019-05-12T01:51:29.834Z,1.07
2019-05-12T01:54:11.011Z,1.30
2019-05-12T01:56:32.473Z,1.00
2019-05-12T01:59:03.017Z,0.90
2019-05-12T02:01:33.527Z,1.17
2019-05-12T02:04:03.965Z,1.17
2019-05-12T02:06:34.471Z,1.37
2019-05-12T02:09:08.548Z,1.00
2019-05-12T02:11:38.961Z,1.13
2019-05-12T02:14:09.520Z,1.40
2019-05-12T02:16:40.050Z,1.00
2019-05-12T02:19:10.515Z,1.33
2019-05-12T02:21:41.045Z,1.40
2019-05-12T02:24:23.324Z,1.00
2019-05-12T02:26:43.680Z,1.17
2019-05-12T02:29:14.118Z,1.03
2019-05-12T02:31:44.565Z,1.23
2019-05-12T02:34:15.906Z,1.17
2019-05-12T02:36:46.625Z,1.03
2019-05-12T02:39:17.068Z,0.97
2019-05-12T02:41:47.586Z,1.20
2019-05-12T02:44:18.066Z,1.23
2019-05-12T02:46:48.582Z,1.17
2019-05-12T02:49:19.062Z,1.07
2019-05-12T02:51:50.311Z,1.10
2019-05-12T02:54:27.004Z,1.30
2019-05-12T02:56:56.575Z,0.90
2019-05-12T02:59:29.313Z,1.23
2019-05-12T03:02:05.057Z,0.80
2019-05-12T03:04:35.342Z,0.80
2019-05-12T03:07:06.664Z,1.10
2019-05-12T03:09:37.303Z,0.90
2019-05-12T03:12:07.698Z,0.70
2019-05-12T03:14:40.964Z,1.03
2019-05-12T03:17:10.543Z,1.10
2019-05-12T03:19:41.025Z,1.23
2019-05-12T03:22:13.942Z,0.83
2019-05-12T03:24:44.931Z,0.90
2019-05-12T03:27:17.745Z,1.30
2019-05-12T03:29:47.916Z,1.07
2019-05-12T03:32:18.356Z,0.97
2019-05-12T03:34:48.780Z,0.87
2019-05-12T03:37:19.263Z,1.00
2019-05-12T03:39:49.706Z,1.00
2019-05-12T03:42:20.154Z,1.07
2019-05-12T03:44:50.592Z,1.20
2019-05-12T03:47:21.005Z,1.07
2019-05-12T03:49:54.246Z,1.10
2019-05-12T03:52:24.559Z,1.10
2019-05-12T03:54:55.978Z,1.10
2019-05-12T03:57:26.739Z,1.13
2019-05-12T04:00:16.597Z,1.10
2019-05-12T04:02:47.194Z,1.30
2019-05-12T04:05:17.718Z,1.10
2019-05-12T04:07:48.135Z,1.20
2019-05-12T04:10:18.669Z,1.00
2019-05-12T04:12:49.356Z,0.93
2019-05-12T04:15:19.776Z,1.30
2019-05-12T04:17:50.194Z,1.50
2019-05-12T04:20:20.607Z,1.33
2019-05-12T04:22:51.074Z,1.33
2019-05-12T04:25:24.766Z,1.30
2019-05-12T04:27:54.651Z,1.20
2019-05-12T04:30:25.328Z,1.10
2019-05-12T04:32:55.933Z,1.40
2019-05-12T04:35:26.404Z,1.50
2019-05-12T04:37:56.821Z,1.47
2019-05-12T04:40:27.323Z,1.03
2019-05-12T04:42:57.753Z,1.40
2019-05-12T04:45:28.240Z,1.47
2019-05-12T04:47:58.742Z,1.27
2019-05-12T04:50:29.224Z,1.30
2019-05-12T04:53:00.045Z,1.23
2019-05-12T04:55:30.470Z,1.57
2019-05-12T04:58:04.232Z,1.70
2019-05-12T05:00:34.798Z,1.60
2019-05-12T05:03:06.059Z,1.50
2019-05-12T05:05:36.850Z,1.50
2019-05-12T05:08:07.425Z,1.30
2019-05-12T05:10:37.939Z,1.40
2019-05-12T05:13:08.393Z,1.43
2019-05-12T05:15:38.855Z,1.63
2019-05-12T05:18:09.356Z,1.60
2019-05-12T05:20:39.790Z,1.40
2019-05-12T05:23:10.295Z,1.60
2019-05-12T05:25:41.340Z,1.60
2019-05-12T05:28:14.539Z,1.57
2019-05-12T05:30:45.320Z,1.27
2019-05-12T05:33:15.743Z,1.50
2019-05-12T05:35:46.198Z,1.40
2019-05-12T05:38:20.595Z,1.07
2019-05-12T05:40:49.107Z,1.27
2019-05-12T05:43:19.604Z,1.33
2019-05-12T05:45:54.525Z,1.30
2019-05-12T05:48:24.117Z,1.40
2019-05-12T05:50:54.402Z,1.47
2019-05-12T05:53:25.493Z,1.57
2019-05-12T05:56:00.067Z,1.57
2019-05-12T05:58:28.157Z,1.90
2019-05-12T06:01:03.906Z,1.20
2019-05-12T06:03:30.783Z,1.50
2019-05-12T06:06:06.323Z,1.53
2019-05-12T06:08:33.885Z,1.30
2019-05-12T06:11:05.655Z,1.73
2019-05-12T06:13:39.758Z,1.03
2019-05-12T06:16:11.724Z,1.23
2019-05-12T06:18:40.894Z,1.17
2019-05-12T06:21:13.602Z,1.20
2019-05-12T06:23:43.618Z,1.40
2019-05-12T06:26:14.229Z,1.17
2019-05-12T06:28:44.707Z,1.30
2019-05-12T06:31:18.873Z,0.87
2019-05-12T06:33:47.640Z,0.80
2019-05-12T06:36:22.284Z,0.70
2019-05-12T06:38:50.264Z,0.97
2019-05-12T06:41:23.647Z,1.00
2019-05-12T06:43:54.185Z,0.97
2019-05-12T06:46:25.882Z,0.80
2019-05-12T06:49:00.879Z,0.80
2019-05-12T06:51:29.610Z,1.10
2019-05-12T06:54:00.913Z,0.80
2019-05-12T06:56:34.353Z,0.90
2019-05-12T06:59:09.877Z,0.73
2019-05-12T07:01:37.105Z,0.60
2019-05-12T07:04:10.003Z,0.83
2019-05-12T07:06:40.006Z,0.93
2019-05-12T07:09:16.401Z,0.90
2019-05-12T07:11:52.914Z,1.13
2019-05-12T07:14:27.074Z,1.10
2019-05-12T07:17:08.369Z,1.00
2019-05-12T07:19:38.889Z,1.00
2019-05-12T07:22:19.934Z,0.90
2019-05-12T07:24:50.099Z,0.77
2019-05-12T07:27:14.131Z,0.87
2019-05-12T07:29:44.737Z,0.60
2019-05-12T07:32:21.546Z,0.90
2019-05-12T07:34:50.211Z,0.80
2019-05-12T07:37:24.102Z,0.80
2019-05-12T07:40:01.080Z,0.97
2019-05-12T07:42:39.185Z,0.77
2019-05-12T07:45:06.031Z,0.70
2019-05-12T07:47:36.474Z,0.67
2019-05-12T07:50:09.979Z,0.70
2019-05-12T07:52:54.295Z,0.63
2019-05-12T07:55:26.541Z,0.50
2019-05-12T07:58:15.602Z,0.93
2019-05-12T08:01:08.001Z,0.80
2019-05-12T08:03:44.745Z,0.80
2019-05-12T08:06:15.543Z,0.60
2019-05-12T08:08:51.118Z,0.70
2019-05-12T08:11:18.611Z,0.73
2019-05-12T08:13:49.526Z,1.00
2019-05-12T08:16:25.563Z,1.10
2019-05-12T08:19:04.079Z,0.90
2019-05-12T08:21:43.572Z,1.10
2019-05-12T08:24:14.296Z,0.90
2019-05-12T08:26:49.707Z,1.03
2019-05-12T08:29:30.882Z,1.10
2019-05-12T08:32:10.074Z,0.70
2019-05-12T08:34:39.938Z,1.03
2019-05-12T08:37:14.048Z,0.83
2019-05-12T08:39:44.832Z,1.03
2019-05-12T08:42:23.961Z,0.90
2019-05-12T08:45:37.387Z,1.00
2019-05-12T08:48:25.434Z,1.10
2019-05-12T08:51:14.632Z,1.10
2019-05-12T08:53:47.955Z,1.07
2019-05-12T08:56:20.494Z,1.50
2019-05-12T08:58:54.188Z,1.03
2019-05-12T09:01:28.675Z,1.33
2019-05-12T09:04:00.477Z,1.13
2019-05-12T09:06:29.921Z,1.33
2019-05-12T09:09:03.353Z,1.10
2019-05-12T09:11:33.713Z,1.10
2019-05-12T09:14:05.874Z,1.50
2019-05-12T09:16:36.706Z,0.97
2019-05-12T09:19:10.214Z,1.13
2019-05-12T09:21:39.495Z,1.10
2019-05-12T09:24:15.542Z,1.00
2019-05-12T09:26:43.345Z,0.93
2019-05-12T09:29:14.051Z,1.10
2019-05-12T09:31:44.496Z,1.20
2019-05-12T09:34:16.572Z,1.07
2019-05-12T09:36:51.976Z,1.33
2019-05-12T09:39:19.738Z,1.30
2019-05-12T09:41:52.727Z,1.10
2019-05-12T09:44:26.439Z,1.13
2019-05-12T09:46:54.697Z,0.70
2019-05-12T09:49:39.547Z,0.87
2019-05-12T09:52:13.976Z,0.73
2019-05-12T09:54:41.163Z,0.70
2019-05-12T09:57:13.795Z,0.80
2019-05-12T09:59:45.948Z,0.93
2019-05-12T10:02:20.722Z,0.90
2019-05-12T10:04:50.379Z,0.80
2019-05-12T10:07:21.247Z,1.07
2019-05-12T10:09:55.128Z,0.93
2019-05-12T10:12:29.531Z,0.80
2019-05-12T10:14:58.965Z,0.90
2019-05-12T10:17:30.301Z,0.80
2019-05-12T10:20:04.368Z,0.90
2019-05-12T10:22:40.311Z,1.00
2019-05-12T10:25:14.193Z,0.80
2019-05-12T10:27:45.558Z,0.93
2019-05-12T10:30:17.821Z,0.90
2019-05-12T10:32:48.245Z,0.93
2019-05-12T10:35:21.543Z,1.00
2019-05-12T10:37:51.294Z,0.90
2019-05-12T10:40:23.360Z,0.80
2019-05-12T10:42:54.659Z,0.80
2019-05-12T10:45:28.087Z,1.00
2019-05-12T10:47:58.689Z,1.00
2019-05-12T10:50:29.443Z,0.80
2019-05-12T10:52:59.971Z,0.60
2019-05-12T10:55:33.831Z,0.73
2019-05-12T10:58:07.100Z,0.60
2019-05-12T11:00:36.928Z,0.83
2019-05-12T11:03:10.752Z,0.80
2019-05-12T11:05:39.765Z,0.50
2019-05-12T11:08:11.340Z,0.63
2019-05-12T11:10:44.676Z,0.70
2019-05-12T11:13:17.812Z,0.77
2019-05-12T11:15:49.610Z,0.83
2019-05-12T11:18:25.979Z,0.77
2019-05-12T11:20:54.442Z,0.90
2019-05-12T11:23:25.048Z,1.10
2019-05-12T11:25:55.542Z,0.70
2019-05-12T11:28:33.584Z,0.73
2019-05-12T11:31:04.932Z,0.90
2019-05-12T11:33:35.370Z,0.57
2019-05-12T11:36:05.918Z,1.17
2019-05-12T11:38:36.408Z,1.00
2019-05-12T11:41:09.935Z,1.13
2019-05-12T11:43:39.389Z,1.03
2019-05-12T11:46:12.694Z,0.70
2019-05-12T11:48:46.294Z,0.70
2019-05-12T11:51:15.505Z,0.50
2019-05-12T11:53:45.979Z,0.93
2019-05-12T11:56:17.010Z,0.83
2019-05-12T11:59:03.093Z,0.70
2019-05-12T12:01:47.573Z,0.70
2019-05-12T12:04:25.176Z,0.40
2019-05-12T12:06:55.736Z,0.80
2019-05-12T12:09:26.393Z,0.80
2019-05-12T12:12:07.265Z,0.63
2019-05-12T12:14:40.254Z,0.60
2019-05-12T12:17:15.266Z,0.50
2019-05-12T12:19:46.942Z,0.60
2019-05-12T12:22:28.082Z,1.03
2019-05-12T12:24:55.158Z,0.60
2019-05-12T12:27:25.605Z,0.80
2019-05-12T12:29:56.105Z,0.57
2019-05-12T12:32:28.709Z,0.73
2019-05-12T12:35:00.897Z,0.80
2019-05-12T12:37:33.166Z,0.60
2019-05-12T12:40:04.279Z,0.77
2019-05-12T12:42:38.544Z,0.60
2019-05-12T12:45:30.459Z,0.67
2019-05-12T12:47:58.228Z,0.70
2019-05-12T12:50:30.684Z,0.70
2019-05-12T12:53:01.042Z,0.60
2019-05-12T12:55:31.490Z,0.60
2019-05-12T12:58:03.322Z,0.67
2019-05-12T13:00:46.615Z,0.80
2019-05-12T13:03:06.943Z,0.80
2019-05-12T13:05:37.477Z,1.10
2019-05-12T13:08:07.928Z,0.80
2019-05-12T13:10:40.699Z,0.77
2019-05-12T13:13:10.676Z,1.03
2019-05-12T13:15:41.446Z,0.67
2019-05-12T13:18:17.876Z,0.67
2019-05-12T13:20:45.132Z,0.70
2019-05-12T13:23:15.712Z,0.90
2019-05-12T13:25:50.797Z,0.93
2019-05-12T13:28:22.365Z,0.90
2019-05-12T13:30:54.002Z,1.00
2019-05-12T13:33:23.733Z,0.90
2019-05-12T13:35:55.714Z,1.07
2019-05-12T13:38:30.455Z,1.00
2019-05-12T13:40:58.726Z,0.90
2019-05-12T13:43:29.174Z,0.70
2019-05-12T13:45:59.760Z,0.70
2019-05-12T13:48:30.280Z,1.03
2019-05-12T13:51:08.430Z,1.10
2019-05-12T13:53:33.474Z,0.80
2019-05-12T13:56:04.883Z,0.80
2019-05-12T13:58:42.601Z,1.00
2019-05-12T14:01:18.375Z,1.00
2019-05-12T14:04:22.190Z,0.83
2019-05-12T14:06:53.278Z,1.00
2019-05-12T14:09:24.019Z,0.77
2019-05-12T14:11:56.047Z,1.00
2019-05-12T14:14:26.549Z,1.00
2019-05-12T14:16:59.253Z,0.90
2019-05-12T14:19:30.316Z,0.43
2019-05-12T14:22:03.465Z,1.00
2019-05-12T14:24:41.822Z,1.10
2019-05-12T14:27:06.026Z,1.00
2019-05-12T14:29:36.496Z,0.70
2019-05-12T14:32:12.311Z,0.80
2019-05-12T14:34:43.516Z,1.17
2019-05-12T14:37:17.368Z,0.90
2019-05-12T14:39:50.233Z,0.87
2019-05-12T14:42:18.403Z,1.10
2019-05-12T14:44:49.814Z,0.60
2019-05-12T14:47:28.329Z,0.83
2019-05-12T14:49:56.889Z,0.60
2019-05-12T14:52:27.853Z,0.83
2019-05-12T14:54:58.387Z,0.90
2019-05-12T14:57:42.700Z,0.87
2019-05-12T15:00:24.169Z,0.80
2019-05-12T15:02:59.169Z,0.90
2019-05-12T15:05:36.179Z,1.37
2019-05-12T15:08:13.939Z,0.90
2019-05-12T15:10:45.520Z,1.20
2019-05-12T15:13:17.328Z,1.20
2019-05-12T15:15:50.087Z,1.13
2019-05-12T15:18:20.002Z,0.80
2019-05-12T15:20:51.677Z,1.10
2019-05-12T15:23:32.658Z,1.10
2019-05-12T15:26:09.726Z,0.80
2019-05-12T15:28:36.736Z,0.90
2019-05-12T15:31:07.341Z,1.33
2019-05-12T15:33:37.799Z,1.17
2019-05-12T15:36:08.412Z,0.80
2019-05-12T15:38:38.882Z,0.80
2019-05-12T15:41:10.634Z,1.10
2019-05-12T15:43:44.432Z,0.97
2019-05-12T15:46:16.357Z,1.10
2019-05-12T15:48:46.012Z,1.17
2019-05-12T15:51:16.468Z,1.00
2019-05-12T15:53:46.998Z,1.00
2019-05-12T15:56:23.060Z,0.77
2019-05-12T15:58:55.869Z,1.03
2019-05-12T16:01:24.389Z,1.00
2019-05-12T16:03:54.920Z,1.30
2019-05-12T16:06:25.346Z,0.93
2019-05-12T16:08:55.870Z,1.60
2019-05-12T16:11:26.399Z,1.00
2019-05-12T16:13:59.315Z,1.33
2019-05-12T16:16:33.996Z,1.47
2019-05-12T16:19:20.536Z,0.90
2019-05-12T16:21:54.184Z,1.43
2019-05-12T16:24:27.368Z,1.00
2019-05-12T16:26:57.249Z,1.40
2019-05-12T16:29:27.866Z,2.60
2019-05-12T16:32:04.716Z,1.00
2019-05-12T16:35:34.610Z,1.10
2019-05-12T16:43:07.157Z,1.87
2019-05-12T16:46:29.867Z,0.93
2019-05-12T16:50:15.294Z,1.70
2019-05-12T16:52:57.831Z,1.30
2019-05-12T16:56:05.526Z,1.30
2019-05-12T17:06:38.582Z,0.97
2019-05-12T17:09:09.762Z,1.00
2019-05-12T17:11:47.315Z,1.00
2019-05-12T17:14:16.046Z,1.00
2019-05-12T17:16:49.308Z,1.40
2019-05-12T17:19:23.662Z,1.10
2019-05-12T17:21:59.496Z,1.23
2019-05-12T17:24:29.949Z,1.00
2019-05-12T17:27:03.536Z,0.90
2019-05-12T17:29:40.736Z,0.80
2019-05-12T17:32:13.272Z,0.60
2019-05-12T17:34:47.602Z,0.83
2019-05-12T17:37:20.356Z,1.00
2019-05-12T17:39:51.193Z,0.90
2019-05-12T17:42:26.652Z,0.90
2019-05-12T17:45:15.944Z,1.30
2019-05-12T17:47:44.454Z,1.90
2019-05-12T17:50:15.811Z,1.40
2019-05-12T17:52:50.450Z,2.47
2019-05-12T17:55:18.855Z,1.27
2019-05-12T17:57:55.491Z,1.33
2019-05-12T18:00:23.526Z,1.33
2019-05-12T18:02:56.258Z,0.70
2019-05-12T18:05:26.426Z,1.27
2019-05-12T18:07:56.922Z,1.07
2019-05-12T18:10:27.517Z,0.77
2019-05-12T18:12:59.426Z,0.70
2019-05-12T18:15:33.231Z,0.90
2019-05-12T18:18:04.087Z,0.90
2019-05-12T18:20:43.969Z,1.00
2019-05-12T18:23:13.460Z,1.20
2019-05-12T18:25:47.608Z,1.07
2019-05-12T18:28:21.695Z,1.10
2019-05-12T18:30:51.120Z,0.90
2019-05-12T18:33:33.047Z,1.40
2019-05-12T18:35:55.769Z,1.47
2019-05-12T18:38:26.816Z,1.13
2019-05-12T18:40:57.397Z,0.90
2019-05-12T18:43:27.900Z,0.97
2019-05-12T18:46:05.548Z,1.00
2019-05-12T18:48:34.450Z,1.33
2019-05-12T18:51:11.930Z,0.87
2019-05-12T18:53:38.309Z,1.90
2019-05-12T18:56:10.430Z,1.10
2019-05-12T18:58:41.058Z,1.37
2019-05-12T19:01:13.952Z,1.53
2019-05-12T19:03:50.529Z,1.30
2019-05-12T19:06:16.199Z,1.07
2019-05-12T19:08:46.674Z,0.93
2019-05-12T19:11:22.724Z,1.10
2019-05-12T19:14:51.765Z,1.07
2019-05-12T19:22:14.831Z,1.13
2019-05-12T19:36:59.200Z,1.20
2019-05-12T19:39:44.641Z,1.23
2019-05-12T19:42:18.567Z,1.20
2019-05-12T19:44:47.522Z,1.50
2019-05-12T19:47:21.383Z,1.17
2019-05-12T19:49:51.293Z,1.30
2019-05-12T19:52:24.368Z,1.20
2019-05-12T19:54:55.103Z,1.30
2019-05-12T19:57:26.316Z,1.10
2019-05-12T19:59:56.905Z,1.20
2019-05-12T20:02:27.365Z,1.43
2019-05-12T20:04:57.933Z,1.40
2019-05-12T20:07:28.486Z,1.60
2019-05-12T20:10:00.501Z,0.93
2019-05-12T20:12:31.133Z,1.43
2019-05-12T20:15:03.811Z,1.20
2019-05-12T20:17:34.121Z,1.47
2019-05-12T20:20:04.990Z,1.30
2019-05-12T20:22:35.477Z,1.27
2019-05-12T20:25:06.068Z,1.50
2019-05-12T20:27:36.522Z,1.47
2019-05-12T20:30:17.220Z,1.30
2019-05-12T20:32:40.432Z,1.67
2019-05-12T20:35:11.005Z,1.40
2019-05-12T20:37:44.229Z,1.50
2019-05-12T20:40:14.391Z,1.50
2019-05-12T20:43:07.032Z,1.50
2019-05-12T20:45:17.527Z,1.67
2019-05-12T20:47:47.994Z,1.50
2019-05-12T20:50:18.453Z,1.47
2019-05-12T20:52:53.497Z,1.60
2019-05-12T20:55:23.287Z,1.90
2019-05-12T20:57:56.723Z,2.00
2019-05-12T21:00:25.517Z,1.50
2019-05-12T21:02:55.970Z,1.53
2019-05-12T21:05:26.789Z,1.93
2019-05-12T21:08:03.339Z,2.17
2019-05-12T21:10:29.872Z,1.37
2019-05-12T21:13:00.418Z,2.00
2019-05-12T21:15:40.730Z,1.57
2019-05-12T21:18:07.236Z,1.80
2019-05-12T21:20:35.803Z,1.73
2019-05-12T21:23:06.354Z,1.77
2019-05-12T21:25:36.792Z,1.73
2019-05-12T21:28:08.060Z,2.00
2019-05-12T21:30:42.449Z,1.70
2019-05-12T21:33:10.842Z,1.43
2019-05-12T21:35:45.441Z,1.80
2019-05-12T21:38:18.819Z,1.40
2019-05-12T21:40:45.970Z,1.80
2019-05-12T21:43:16.418Z,1.53
2019-05-12T21:45:47.009Z,1.80
2019-05-12T21:48:23.663Z,1.50
2019-05-12T21:50:49.945Z,1.83
2019-05-12T21:53:23.678Z,1.37
2019-05-12T21:55:55.251Z,1.57
2019-05-12T21:58:26.253Z,1.77
2019-05-12T22:01:05.198Z,1.87
2019-05-12T22:03:35.085Z,1.60
2019-05-12T22:06:15.238Z,1.83
2019-05-12T22:08:37.970Z,1.80
2019-05-12T22:11:11.507Z,1.60
2019-05-12T22:13:46.904Z,2.00
2019-05-12T22:16:14.193Z,1.87
2019-05-12T22:18:47.687Z,2.30
2019-05-12T22:21:17.272Z,1.90
2019-05-12T22:23:51.269Z,2.13
2019-05-12T22:26:19.982Z,1.83
2019-05-12T22:28:51.027Z,1.70
2019-05-12T22:31:24.123Z,1.60
2019-05-12T22:33:56.434Z,2.10
2019-05-12T22:36:29.954Z,1.80
2019-05-12T22:39:00.741Z,1.83
2019-05-12T22:41:36.847Z,2.10
2019-05-12T22:44:02.851Z,1.77
2019-05-12T22:46:35.835Z,1.80
2019-05-12T22:49:10.395Z,1.50
2019-05-12T22:51:37.762Z,1.60
2019-05-12T22:54:10.620Z,1.83
2019-05-12T22:56:40.735Z,1.90
2019-05-12T22:59:13.646Z,1.87
2019-05-12T23:01:46.329Z,2.00
2019-05-12T23:04:15.597Z,1.77
2019-05-12T23:06:46.916Z,1.80
2019-05-12T23:09:19.402Z,2.17
2019-05-12T23:11:49.683Z,2.10
2019-05-12T23:14:22.376Z,1.90
2019-05-12T23:16:54.481Z,1.70
2019-05-12T23:19:24.630Z,1.50
2019-05-12T23:21:58.759Z,1.67
2019-05-12T23:24:30.350Z,1.70
2019-05-12T23:26:59.513Z,1.57
2019-05-12T23:29:31.110Z,1.80
2019-05-12T23:32:07.194Z,1.70
2019-05-12T23:34:34.298Z,1.47
2019-05-12T23:37:04.848Z,1.47
2019-05-12T23:39:38.277Z,1.60
2019-05-12T23:42:08.121Z,1.70
2019-05-12T23:44:39.081Z,1.47
2019-05-12T23:47:09.951Z,1.50
2019-05-12T23:49:40.542Z,1.70
2019-05-12T23:52:11.035Z,1.40
2019-05-12T23:54:41.581Z,1.70
2019-05-12T23:57:13.605Z,1.43
2019-05-12T23:59:44.352Z,1.50
